Manukau, New Zealand
Current Conditions -  °F | °C
As of 1:00 PM on Wednesday 26 Nov 2014 (Local Time) from NZAA Reporting Station
Broken Clouds Broken Clouds  
Wind Chill: 63°   Ceiling: 1100
Heat Index: 63°   Visibility: 6mi
Dew Point: 61°   Wind: 20mph
Humidity: 94%   Direction: 220°SW
Pressure: 29.94"   Gusts: NA
Location:  36.93°S, 174.93°E
Report Text: NZAA 260000Z AUTO 22017KT 9999 SCT007/// BKN011/// BKN018///17/16 Q1014 BECMG SCT030 TEMPO 4000 RADZ
Loading
Personal Weather Stations






























Interactive Weather Map New forecast layout! Learn more

10-Day Weather Forecast

Advertisements
Track Severe Weather on mobile